Terminal Aerodrome Forecast
Issued by NWS Houston/Galveston, TX

Current Version | Previous Version | Text Only | Print | Product List | Glossary On
Versions: 1 2 3 4 5 6 7 8 9 10 11 12 13 14 15 16 17
000
FTUS44 KHGX 230919 AAA
TAFCLL
TAF AMD
KCLL 230919Z 2309/2406 07003KT P6SM SCT110 OVC200
     FM231300 05006KT P6SM BKN200=

USA.gov is the U.S. government's official web portal to all federal, state and local government web resources and services.